EDT,Max TemperatureF,Mean TemperatureF,Min TemperatureF,Max Dew PointF,MeanDew PointF,Min DewpointF,Max Humidity, Mean Humidity, Min Humidity, Max Sea Level PressureIn, Mean Sea Level PressureIn, Min Sea Level PressureIn, Max VisibilityMiles, Mean VisibilityMiles, Min VisibilityMiles, Max Wind SpeedMPH, Mean Wind SpeedMPH, Max Gust SpeedMPH,PrecipitationIn, CloudCover, Events, WindDirDegrees
2012-9-1,82,71,59,64,57,49,90,63,36,30.12,30.07,29.99,10,10,10,13,5,16,0.00,2,,332
2012-9-2,84,70,55,60,55,50,93,63,33,30.10,30.06,30.03,10,10,10,18,5,22,0.00,3,,79
2012-9-3,86,72,57,68,63,55,93,74,55,30.06,30.02,29.96,10,10,8,18,6,24,0.00,2,,165
2012-9-4,84,76,68,72,69,66,100,83,65,29.97,29.84,29.76,10,6,1,21,7,26,2.64,7,Rain-Thunderstorm,3
2012-9-5,81,73,65,68,65,63,100,77,54,29.91,29.86,29.83,10,10,2,9,3,12,0.00,6,Rain,9
2012-9-6,82,74,65,69,64,60,93,75,56,29.91,29.86,29.81,10,10,10,15,5,18,0.00,6,,248
2012-9-7,83,72,60,65,62,59,100,73,46,29.94,29.87,29.70,10,8,0,21,4,26,0.05,4,Fog-Rain-Thunderstorm,184
2012-9-8,72,63,54,67,61,52,93,78,63,29.80,29.59,29.42,10,9,1,25,8,36,0.20,7,Rain-Thunderstorm,231
2012-9-9,67,59,51,54,50,43,100,71,42,30.00,29.90,29.80,10,10,10,16,7,20,0.00,4,,269
2012-9-10,68,58,48,49,44,39,93,65,37,30.17,30.12,30.01,10,10,10,17,6,23,0.00,2,,294
2012-9-11,75,61,46,55,49,44,93,67,41,30.28,30.23,30.18,10,10,10,10,6,18,0.00,2,,235
2012-9-12,80,66,52,57,52,49,84,60,35,30.31,30.26,30.22,10,10,10,16,7,21,0.00,1,,204
2012-9-13,83,71,58,62,57,53,93,67,40,30.30,30.25,30.20,10,10,9,17,7,22,0.00,1,,222
2012-9-14,81,67,53,65,59,52,100,77,54,30.20,30.14,30.05,10,9,2,26,8,38,0.36,6,Rain-Thunderstorm,264
2012-9-15,65,58,50,52,50,49,100,80,60,30.25,30.19,30.15,10,10,10,10,5,15,0.00,4,,274
2012-9-16,71,59,47,56,51,46,100,77,53,30.17,30.10,30.04,10,10,10,13,6,16,0.00,4,,230
2012-9-17,76,65,53,55,51,48,89,64,38,30.06,29.98,29.86,10,10,10,17,8,21,0.00,3,,194
2012-9-18,73,62,50,64,59,45,100,84,67,29.82,29.61,29.46,10,7,2,24,10,35,0.56,8,Rain-Thunderstorm,225
2012-9-19,62,53,44,45,43,39,100,73,46,30.19,30.07,29.85,10,10,10,16,6,22,0.00,2,,244
2012-9-20,72,57,41,49,45,40,96,67,38,30.16,30.05,29.94,10,10,10,20,8,24,0.00,3,,184
2012-9-21,72,65,58,59,55,50,93,77,60,29.94,29.92,29.86,10,10,7,22,4,28,0.14,7,Rain-Thunderstorm,197
2012-9-22,68,58,48,58,52,43,100,80,60,29.93,29.77,29.61,10,10,5,24,9,36,0.16,7,Rain,246
2012-9-23,61,52,42,44,40,37,96,69,42,30.15,30.06,29.94,10,10,10,24,10,31,0.00,2,,250
2012-9-24,60,50,39,42,40,37,96,72,47,30.17,30.10,29.99,10,10,10,22,10,30,0.00,4,,226
2012-9-25,73,62,50,52,42,38,80,57,34,30.01,29.98,29.95,10,10,10,22,9,26,0.01,4,Rain,205
2012-9-26,69,62,55,61,55,41,84,70,55,30.13,29.98,29.93,10,10,5,13,7,18,T,8,Rain,233
2012-9-27,63,53,43,48,43,39,96,72,48,30.26,30.21,30.14,10,10,10,17,6,20,0.00,5,,8
2012-9-28,57,50,42,52,48,40,100,90,80,30.18,30.10,30.06,10,10,3,13,2,16,0.03,7,Rain,92
2012-9-29,63,53,43,52,45,41,100,76,51,30.06,30.01,29.96,10,10,10,12,3,14,0.07,5,,244
2012-9-30,59,55,50,51,49,48,96,84,72,29.95,29.89,29.83,10,10,5,15,7,18,0.23,8,Rain,312